Claremore, OK

10:39 PM CST on February 12, 2016 (GMT -0600)
Claremore Regional

Weather History for KGCM - March, 2014

Change the Weather History Date:

Sunday, March 16, 2014

  Actual Average (KTUL) Record (KTUL)
Temperature  
Mean Temperature 42 °F 51 °F  
Max Temperature 53 °F 62 °F 86 °F (1908)
Min Temperature 32 °F 40 °F 22 °F (1962)
Degree Days  
Heating Degree Days 22 14  
Month to date heating degree days 260  
Since 1 July heating degree days 3171  
Cooling Degree Days 0 0  
Month to date cooling degree days 0  
Year to date cooling degree days 1  
Moisture  
Dew Point 37 °F    
Average Humidity 89    
Maximum Humidity 100    
Minimum Humidity 75    
Precipitation  
Precipitation 0.83 in 0.11 in 1.34 in (1998)
Month to date precipitation 1.63  
Year to date precipitation 5.14  
Sea Level Pressure  
Sea Level Pressure 29.99 in    
Wind  
Wind Speed 12 mph (North)    
Max Wind Speed 25 mph    
Max Gust Speed 43 mph    
Visibility 8 miles    
Events Rain    
T = Trace of Precipitation, MM = Missing Value Source: NWS Daily Summary

Daily Weather History Graph

Daily Weather History Graph

Search for Another Location

Airport or City:

Trip Planner

Search our weather history database for the weather conditions in past years. The results will help you decide how hot, cold, wet, or windy it might be!

Date:

Astronomy

Mar. 16, 2014 Rise Set
Actual Time 7:31 AM CDT 7:30 PM CDT
Civil Twilight 7:05 AM CDT 7:55 PM CDT
Nautical Twilight 6:35 AM CDT 8:25 PM CDT
Astronomical Twilight 6:05 AM CDT 8:56 PM CDT
Moon 7:47 PM CDT (3/16) 7:15 AM CDT (3/16)
Length of Visible Light 12h 50m
Length of Day
11h 59m
Full, 100% of the Moon is Illuminated
Mar 16
Full
Mar 16
Full
Mar 23
Last Quarter
Mar 30
New
Apr 7
First Quarter

Hourly Weather History & Observations

Time (CDT) Temp. Windchill Dew Point Humidity Pressure Visibility Wind Dir Wind Speed Gust Speed Precip Events Conditions
12:15 AM 53.6 °F - 51.8 °F 94% 29.82 in 4.0 mi Calm Calm - 0.01 in Rain Light Rain
12:35 AM 53.6 °F - 51.8 °F 94% 29.81 in 4.0 mi NW 4.6 mph - 0.03 in Rain Rain
12:55 AM 53.6 °F - 51.8 °F 94% 29.81 in 3.0 mi NNW 4.6 mph - 0.05 in Rain Rain
1:15 AM 53.6 °F - 51.8 °F 94% 29.80 in 3.0 mi North 3.5 mph - 0.03 in Rain Rain
1:35 AM 53.6 °F - 51.8 °F 94% 29.80 in 3.0 mi North 3.5 mph - 0.08 in Rain Rain
1:55 AM 53.6 °F - 51.8 °F 94% 29.79 in 4.0 mi North 4.6 mph - 0.15 in Rain Heavy Rain
2:15 AM 53.6 °F - 51.8 °F 94% 29.79 in 3.0 mi NNE 8.1 mph - 0.12 in Rain Heavy Rain
2:35 AM 53.6 °F - 51.8 °F 94% 29.80 in 5.0 mi NNE 8.1 mph - 0.17 in Rain Rain
2:55 AM 53.6 °F - 51.8 °F 94% 29.80 in 7.0 mi NNE 8.1 mph - 0.20 in Rain Rain
3:15 AM 53.6 °F - 51.8 °F 94% 29.79 in 7.0 mi North 6.9 mph - 0.03 in Rain Rain
3:35 AM 51.8 °F - 51.8 °F 100% 29.80 in 7.0 mi North 10.4 mph - 0.06 in Rain Rain
3:55 AM 51.8 °F - 51.8 °F 100% 29.79 in 5.0 mi North 10.4 mph 19.6 mph 0.13 in Rain Heavy Rain
4:15 AM 51.8 °F - 50.0 °F 94% 29.79 in 5.0 mi NNE 9.2 mph - 0.07 in Rain Heavy Rain
4:35 AM 51.8 °F - 50.0 °F 94% 29.79 in 7.0 mi North 10.4 mph 18.4 mph 0.12 in Rain Rain
4:55 AM 51.8 °F - 50.0 °F 94% 29.80 in 7.0 mi North 15.0 mph 23.0 mph 0.15 in Rain Rain
5:15 AM 50.0 °F - 46.4 °F 87% 29.81 in 7.0 mi North 16.1 mph 25.3 mph 0.03 in Rain Rain
5:35 AM 46.4 °F 39.0 °F 44.6 °F 93% 29.82 in 7.0 mi North 19.6 mph 27.6 mph 0.05 in Rain Rain
5:55 AM 44.6 °F 36.9 °F 42.8 °F 93% 29.84 in 7.0 mi North 18.4 mph 33.4 mph 0.07 in Rain Light Rain
6:15 AM 44.6 °F 37.2 °F 42.8 °F 93% 29.85 in 10.0 mi North 17.3 mph 31.1 mph N/A Rain Light Rain
6:35 AM 42.8 °F 34.3 °F 41.0 °F 93% 29.86 in 10.0 mi North 19.6 mph 32.2 mph 0.01 in Rain Light Rain
6:55 AM 42.8 °F 34.5 °F 41.0 °F 93% 29.88 in 10.0 mi North 18.4 mph 26.5 mph 0.01 in Rain Light Rain
7:15 AM 39.2 °F 30.8 °F 37.4 °F 93% 29.89 in 10.0 mi North 15.0 mph 27.6 mph N/A Rain Light Rain
7:35 AM 37.4 °F 28.2 °F 35.6 °F 93% 29.90 in 7.0 mi North 16.1 mph 31.1 mph 0.01 in Rain Rain
7:55 AM 35.6 °F 24.5 °F 33.8 °F 93% 29.91 in 7.0 mi North 20.7 mph 28.8 mph 0.02 in Rain Light Rain
8:15 AM 35.6 °F 25.5 °F 33.8 °F 93% 29.93 in 7.0 mi North 17.3 mph 27.6 mph 0.01 in Rain Light Rain
8:35 AM 35.6 °F 24.2 °F 33.8 °F 93% 29.95 in 5.0 mi North 21.9 mph 31.1 mph 0.02 in Rain Light Rain
8:55 AM 35.6 °F 24.0 °F 33.8 °F 93% 29.96 in 5.0 mi North 23.0 mph 29.9 mph 0.03 in Rain Light Rain
9:15 AM 35.6 °F 23.4 °F 33.8 °F 93% 29.97 in 5.0 mi North 25.3 mph 33.4 mph 0.01 in Rain Light Rain
9:35 AM 35.6 °F 23.4 °F 32.0 °F 87% 29.98 in 5.0 mi North 25.3 mph 38.0 mph 0.01 in Rain Light Rain
9:55 AM 35.6 °F 26.2 °F 33.8 °F 93% 30.00 in 7.0 mi North 15.0 mph 31.1 mph 0.01 in Rain Light Rain
10:15 AM 33.8 °F 21.9 °F 32.0 °F 93% 30.01 in 5.0 mi North 21.9 mph 33.4 mph N/A Rain Light Rain
10:35 AM 33.8 °F 21.3 °F 32.0 °F 93% 30.02 in 4.0 mi North 24.2 mph 29.9 mph N/A Rain Rain
10:55 AM 33.8 °F 21.9 °F 32.0 °F 93% 30.03 in 4.0 mi North 21.9 mph 29.9 mph 0.01 in Rain Light Rain
11:15 AM 33.8 °F 22.5 °F 32.0 °F 93% 30.04 in 3.0 mi North 19.6 mph 42.6 mph N/A Rain Light Rain
11:35 AM 33.8 °F 21.3 °F 32.0 °F 93% 30.05 in 5.0 mi North 24.2 mph 34.5 mph N/A Rain Light Rain
11:55 AM 33.8 °F 22.8 °F 32.0 °F 93% 30.07 in 10.0 mi North 18.4 mph 29.9 mph N/A Rain Light Rain
12:15 PM 33.8 °F 22.5 °F 32.0 °F 93% 30.08 in 7.0 mi North 19.6 mph 32.2 mph N/A Rain Light Rain
12:35 PM 33.8 °F 22.8 °F 32.0 °F 93% 30.08 in 7.0 mi North 18.4 mph 28.8 mph N/A Rain Light Rain
12:55 PM 33.8 °F 21.6 °F 32.0 °F 93% 30.08 in 7.0 mi North 23.0 mph 32.2 mph N/A Rain Light Rain
1:15 PM 35.6 °F 24.8 °F 32.0 °F 87% 30.08 in 7.0 mi North 19.6 mph 32.2 mph N/A Rain Rain
1:35 PM 35.6 °F 24.0 °F 32.0 °F 87% 30.08 in 7.0 mi North 23.0 mph 36.8 mph N/A Rain Rain
1:55 PM 35.6 °F 24.5 °F 33.8 °F 93% 30.08 in 10.0 mi North 20.7 mph 29.9 mph N/A Rain Rain
2:15 PM 35.6 °F 24.2 °F 32.0 °F 87% 30.08 in 10.0 mi North 21.9 mph 31.1 mph N/A   Light Drizzle
2:35 PM 35.6 °F 25.9 °F 32.0 °F 87% 30.07 in 10.0 mi North 16.1 mph 29.9 mph N/A   Overcast
2:55 PM 35.6 °F 25.5 °F 32.0 °F 87% 30.07 in 10.0 mi North 17.3 mph 29.9 mph N/A   Overcast
3:15 PM 35.6 °F 24.8 °F 32.0 °F 87% 30.06 in 10.0 mi North 19.6 mph 27.6 mph N/A   Overcast
3:35 PM 35.6 °F 25.9 °F 32.0 °F 87% 30.06 in 10.0 mi North 16.1 mph 27.6 mph N/A   Mostly Cloudy
3:55 PM 35.6 °F 25.9 °F 32.0 °F 87% 30.07 in 10.0 mi North 16.1 mph 25.3 mph N/A   Overcast
4:15 PM 35.6 °F 24.8 °F 32.0 °F 87% 30.07 in 10.0 mi North 19.6 mph 26.5 mph N/A   Mostly Cloudy
4:35 PM 35.6 °F 25.9 °F 32.0 °F 87% 30.08 in 10.0 mi NNE 16.1 mph 26.5 mph N/A   Overcast
4:55 PM 37.4 °F 29.3 °F 32.0 °F 81% 30.08 in 10.0 mi North 12.7 mph 23.0 mph N/A   Overcast
5:15 PM 37.4 °F 28.5 °F 32.0 °F 81% 30.08 in 10.0 mi North 15.0 mph 23.0 mph N/A   Mostly Cloudy
5:35 PM 35.6 °F 26.6 °F 32.0 °F 87% 30.09 in 10.0 mi North 13.8 mph 24.2 mph N/A   Overcast
5:55 PM 35.6 °F 26.6 °F 32.0 °F 87% 30.08 in 10.0 mi North 13.8 mph 25.3 mph N/A   Mostly Cloudy
6:15 PM 35.6 °F 25.9 °F 32.0 °F 87% 30.08 in 10.0 mi NNE 16.1 mph 20.7 mph N/A   Overcast
6:35 PM 37.4 °F 29.3 °F 32.0 °F 81% 30.09 in 10.0 mi North 12.7 mph 20.7 mph N/A   Overcast
6:55 PM 37.4 °F 28.9 °F 32.0 °F 81% 30.09 in 10.0 mi North 13.8 mph 23.0 mph N/A   Mostly Cloudy
7:15 PM 37.4 °F 29.3 °F 32.0 °F 81% 30.11 in 10.0 mi North 12.7 mph 25.3 mph N/A   Mostly Cloudy
7:35 PM 35.6 °F 27.5 °F 30.2 °F 81% 30.11 in 10.0 mi North 11.5 mph - N/A   Mostly Cloudy
7:55 PM 35.6 °F 26.6 °F 30.2 °F 81% 30.11 in 10.0 mi North 13.8 mph 18.4 mph N/A   Overcast
8:15 PM 35.6 °F 29.2 °F 30.2 °F 81% 30.11 in 10.0 mi North 8.1 mph 16.1 mph N/A   Mostly Cloudy
8:35 PM 35.6 °F 29.2 °F 30.2 °F 81% 30.11 in 10.0 mi North 8.1 mph - N/A   Overcast
8:55 PM 35.6 °F 28.6 °F 30.2 °F 81% 30.11 in 10.0 mi North 9.2 mph 17.3 mph N/A   Overcast
9:15 PM 35.6 °F 28.0 °F 30.2 °F 81% 30.12 in 10.0 mi NNE 10.4 mph 17.3 mph N/A   Mostly Cloudy
9:35 PM 35.6 °F 28.0 °F 30.2 °F 81% 30.12 in 10.0 mi NNE 10.4 mph - N/A   Mostly Cloudy
9:55 PM 35.6 °F 29.2 °F 28.4 °F 75% 30.12 in 10.0 mi NNE 8.1 mph - N/A   Mostly Cloudy
10:15 PM 33.8 °F 26.4 °F 28.4 °F 81% 30.13 in 10.0 mi NNE 9.2 mph - N/A   Scattered Clouds
10:35 PM 33.8 °F 25.8 °F 28.4 °F 81% 30.13 in 10.0 mi NE 10.4 mph - N/A   Clear
10:55 PM 33.8 °F 26.4 °F 28.4 °F 81% 30.13 in 10.0 mi NE 9.2 mph - N/A   Clear
11:15 PM 32.0 °F 24.8 °F 28.4 °F 87% 30.14 in 10.0 mi NE 8.1 mph - N/A   Clear
11:35 PM 32.0 °F 23.0 °F 26.6 °F 80% 30.14 in 10.0 mi NNE 11.5 mph 18.4 mph N/A   Clear
11:55 PM 32.0 °F 23.0 °F 26.6 °F 80% 30.13 in 10.0 mi NE 11.5 mph - N/A   Clear